Terminal Aerodrome Forecast
Issued by NWS St Louis, MO

Home | Current Version | Previous Version | Text Only | Print | Product List | Glossary On
Versions: 1 2 3 4 5 6 7 8 9 10 11 12 13 14 15
000
FTUS43 KLSX 141700
TAFCOU
TAF
KCOU 141720Z 1418/1518 34015G25KT P6SM SCT007 OVC018
     FM141900 33017G27KT 5SM -RA SCT008 OVC016
      TEMPO 1419/1423 1SM -SN OVC008
     FM142300 32015G22KT P6SM BKN045
     FM150600 32007KT P6SM SKC=

USA.gov is the U.S. government's official web portal to all federal, state and local government web resources and services.